createdAt,value
2018-03-15T00:00:57.171Z,0
2018-03-15T00:01:57.286Z,0
2018-03-15T00:02:57.198Z,0
2018-03-15T00:03:57.207Z,0
2018-03-15T00:05:11.740Z,0
2018-03-15T00:05:57.248Z,0
2018-03-15T00:07:57.267Z,0
2018-03-15T00:08:57.286Z,0
2018-03-15T00:09:57.299Z,0
2018-03-15T00:10:57.319Z,0
2018-03-15T00:11:57.334Z,0
2018-03-15T00:12:57.349Z,0
2018-03-15T00:13:57.409Z,0
2018-03-15T00:14:57.123Z,0
2018-03-15T00:15:57.136Z,0
2018-03-15T00:16:57.213Z,0
2018-03-15T00:18:12.094Z,0
2018-03-15T00:19:57.454Z,0
2018-03-15T00:21:12.135Z,0
2018-03-15T00:21:56.975Z,0
2018-03-15T00:22:57.245Z,0
2018-03-15T00:23:57.258Z,0
2018-03-15T00:24:57.530Z,0
2018-03-15T00:25:57.604Z,0
2018-03-15T00:27:57.577Z,0
2018-03-15T00:28:57.591Z,0
2018-03-15T00:29:57.350Z,0
2018-03-15T00:30:57.374Z,0
2018-03-15T00:32:12.316Z,0
2018-03-15T00:32:57.487Z,0
2018-03-15T00:33:57.430Z,0
2018-03-15T00:34:57.430Z,0
2018-03-15T00:35:57.711Z,0
2018-03-15T00:37:12.392Z,0
2018-03-15T00:38:57.234Z,0
2018-03-15T00:39:57.560Z,0
2018-03-15T00:40:57.524Z,0
2018-03-15T00:41:57.278Z,0
2018-03-15T00:42:57.565Z,0
2018-03-15T00:43:57.567Z,0
2018-03-15T00:44:57.579Z,0
2018-03-15T00:45:57.598Z,0
2018-03-15T00:46:57.872Z,0
2018-03-15T00:47:57.628Z,0
2018-03-15T00:48:57.904Z,0
2018-03-15T00:49:57.659Z,0
2018-03-15T00:50:57.682Z,0
2018-03-15T00:52:12.611Z,0
2018-03-15T00:52:57.960Z,0
2018-03-15T00:54:12.643Z,0
2018-03-15T00:54:57.738Z,0
2018-03-15T00:55:58.008Z,0
2018-03-15T00:56:58.123Z,0
2018-03-15T00:57:58.034Z,0
2018-03-15T00:58:58.112Z,0
2018-03-15T00:59:58.062Z,0
2018-03-15T01:00:58.080Z,0
2018-03-15T01:01:58.100Z,0
2018-03-15T01:02:58.119Z,0
2018-03-15T01:03:58.128Z,0
2018-03-15T01:04:58.142Z,0
2018-03-15T01:05:57.907Z,0
2018-03-15T01:06:58.174Z,0
2018-03-15T01:07:58.192Z,0
2018-03-15T01:08:58.209Z,0
2018-03-15T01:09:57.973Z,0
2018-03-15T01:10:58.246Z,0
2018-03-15T01:11:58.251Z,0
2018-03-15T01:12:58.271Z,0
2018-03-15T01:14:12.946Z,0
2018-03-15T01:14:58.303Z,0
2018-03-15T01:15:58.318Z,0
2018-03-15T01:16:58.328Z,0
2018-03-15T01:17:58.345Z,0
2018-03-15T01:19:58.385Z,0
2018-03-15T01:21:58.404Z,0
2018-03-15T01:22:58.463Z,0
2018-03-15T01:24:13.110Z,0
2018-03-15T01:24:58.456Z,0
2018-03-15T01:25:58.479Z,0
2018-03-15T01:26:58.581Z,0
2018-03-15T01:27:58.499Z,0
2018-03-15T01:29:13.179Z,0
2018-03-15T01:30:13.209Z,0
2018-03-15T01:30:58.439Z,0
2018-03-15T01:31:58.558Z,0
2018-03-15T01:32:58.577Z,0
2018-03-15T01:33:58.592Z,0
2018-03-15T01:34:58.614Z,0
2018-03-15T01:35:58.367Z,0
2018-03-15T01:37:58.645Z,0
2018-03-15T01:38:58.668Z,0
2018-03-15T01:40:13.353Z,0
2018-03-15T01:40:58.701Z,0
2018-03-15T01:42:13.382Z,0
2018-03-15T01:42:58.736Z,0
2018-03-15T01:43:58.488Z,0
2018-03-15T01:44:58.503Z,0
2018-03-15T01:45:58.825Z,0
2018-03-15T01:46:58.788Z,0
2018-03-15T01:47:58.805Z,0
2018-03-15T01:48:58.820Z,0
2018-03-15T01:49:58.847Z,0
2018-03-15T01:50:58.868Z,0
2018-03-15T01:51:58.865Z,0
2018-03-15T01:52:58.879Z,0
2018-03-15T01:53:58.910Z,0
2018-03-15T01:55:13.583Z,0
2018-03-15T01:56:58.947Z,0
2018-03-15T01:58:13.629Z,0
2018-03-15T01:58:59.034Z,0
2018-03-15T02:00:13.655Z,0
2018-03-15T02:00:59.003Z,0
2018-03-15T02:01:59.025Z,0
2018-03-15T02:02:58.886Z,0
2018-03-15T02:03:59.048Z,0
2018-03-15T02:04:59.115Z,0
2018-03-15T02:05:59.080Z,0
2018-03-15T02:06:58.841Z,0
2018-03-15T02:07:59.117Z,0
2018-03-15T02:08:59.129Z,0
2018-03-15T02:09:58.633Z,0
2018-03-15T02:10:59.213Z,0
2018-03-15T02:12:13.887Z,0
2018-03-15T02:12:59.187Z,0
2018-03-15T02:13:59.217Z,0
2018-03-15T02:14:59.220Z,0
2018-03-15T02:15:59.238Z,0
2018-03-15T02:16:59.253Z,0
2018-03-15T02:17:59.265Z,0
2018-03-15T02:18:59.028Z,0
2018-03-15T02:19:59.296Z,0
2018-03-15T02:20:59.056Z,0
2018-03-15T02:21:59.372Z,0
2018-03-15T02:22:59.351Z,0
2018-03-15T02:23:59.150Z,0
2018-03-15T02:24:59.120Z,0
2018-03-15T02:25:59.389Z,0
2018-03-15T02:27:13.814Z,0
2018-03-15T02:27:59.424Z,0
2018-03-15T02:28:59.450Z,0
2018-03-15T02:30:14.117Z,0
2018-03-15T02:30:58.961Z,0
2018-03-15T02:31:58.969Z,0
2018-03-15T02:32:59.506Z,0
2018-03-15T02:33:59.047Z,0
2018-03-15T02:35:59.553Z,0
2018-03-15T02:36:59.570Z,0
2018-03-15T02:37:59.324Z,0
2018-03-15T02:38:59.588Z,0
2018-03-15T02:39:59.091Z,0
2018-03-15T02:41:14.296Z,0
2018-03-15T02:42:14.301Z,0
2018-03-15T02:42:59.763Z,0
2018-03-15T02:43:59.675Z,0
2018-03-15T02:45:14.393Z,0
2018-03-15T02:45:59.703Z,0
2018-03-15T02:47:14.371Z,0
2018-03-15T02:47:59.728Z,0
2018-03-15T02:48:59.764Z,0
2018-03-15T02:49:59.811Z,0
2018-03-15T02:50:59.770Z,0
2018-03-15T02:51:59.528Z,0
2018-03-15T02:52:59.806Z,0
2018-03-15T02:53:59.919Z,0
2018-03-15T02:54:59.851Z,0
2018-03-15T02:56:14.564Z,0
2018-03-15T02:56:59.864Z,0
2018-03-15T02:58:14.542Z,0
2018-03-15T02:59:14.557Z,0
2018-03-15T02:59:59.922Z,0
2018-03-15T03:00:59.926Z,0
2018-03-15T03:01:59.937Z,0
2018-03-15T03:02:59.969Z,0
2018-03-15T03:03:59.968Z,0
2018-03-15T03:04:59.983Z,0
2018-03-15T03:05:59.997Z,0
2018-03-15T03:09:14.751Z,0
2018-03-15T03:11:00.085Z,0
2018-03-15T03:12:00.089Z,0
2018-03-15T03:12:59.853Z,0
2018-03-15T03:13:59.859Z,0
2018-03-15T03:15:14.809Z,0
2018-03-15T03:16:00.147Z,0
2018-03-15T03:17:14.890Z,0
2018-03-15T03:18:00.180Z,0
2018-03-15T03:18:59.937Z,0
2018-03-15T03:20:00.203Z,0
2018-03-15T03:21:00.219Z,0
2018-03-15T03:22:00.235Z,0
2018-03-15T03:23:00.254Z,0
2018-03-15T03:25:00.280Z,0
2018-03-15T03:26:00.302Z,0
2018-03-15T03:27:00.315Z,0
2018-03-15T03:28:00.326Z,0
2018-03-15T03:29:00.356Z,0
2018-03-15T03:30:15.035Z,0
2018-03-15T03:31:15.102Z,0
2018-03-15T03:32:00.387Z,0
2018-03-15T03:33:00.403Z,0
2018-03-15T03:34:00.430Z,0
2018-03-15T03:35:00.436Z,0
2018-03-15T03:36:00.500Z,0
2018-03-15T03:37:00.470Z,0
2018-03-15T03:38:00.482Z,0
2018-03-15T03:39:00.545Z,0
2018-03-15T03:40:00.326Z,0
2018-03-15T03:41:00.541Z,0
2018-03-15T03:42:00.542Z,0
2018-03-15T03:43:00.555Z,0
2018-03-15T03:44:00.569Z,0
2018-03-15T03:45:00.336Z,0
2018-03-15T03:46:00.350Z,0
2018-03-15T03:47:15.283Z,0
2018-03-15T03:48:15.299Z,0
2018-03-15T03:49:00.653Z,0
2018-03-15T03:50:00.659Z,0
2018-03-15T03:51:00.421Z,0
2018-03-15T03:52:00.694Z,0
2018-03-15T03:53:00.810Z,0
2018-03-15T03:54:00.725Z,0
2018-03-15T03:55:00.737Z,0
2018-03-15T03:56:00.751Z,0
2018-03-15T03:57:00.766Z,0
2018-03-15T03:58:00.526Z,0
2018-03-15T03:59:00.815Z,0
2018-03-15T04:00:00.815Z,0
2018-03-15T04:01:15.547Z,0
2018-03-15T04:02:15.513Z,0
2018-03-15T04:03:00.858Z,0
2018-03-15T04:04:00.642Z,0
2018-03-15T04:05:15.554Z,0
2018-03-15T04:06:01.011Z,0
2018-03-15T04:07:00.932Z,0
2018-03-15T04:08:00.934Z,0
2018-03-15T04:09:00.696Z,0
2018-03-15T04:11:00.724Z,0
2018-03-15T04:12:00.744Z,0
2018-03-15T04:13:00.752Z,0
2018-03-15T04:14:00.818Z,0
2018-03-15T04:15:15.711Z,0
2018-03-15T04:16:00.808Z,0
2018-03-15T04:17:00.821Z,0
2018-03-15T04:18:01.091Z,0
2018-03-15T04:19:15.510Z,0
2018-03-15T04:20:15.526Z,0
2018-03-15T04:21:00.878Z,0
2018-03-15T04:22:00.633Z,0
2018-03-15T04:23:00.648Z,0
2018-03-15T04:25:01.187Z,0
2018-03-15T04:26:01.208Z,0
2018-03-15T04:27:00.964Z,0
2018-03-15T04:28:01.236Z,0
2018-03-15T04:29:01.355Z,0
2018-03-15T04:30:01.264Z,0
2018-03-15T04:31:01.059Z,0
2018-03-15T04:32:01.045Z,0
2018-03-15T04:33:01.314Z,0
2018-03-15T04:34:15.993Z,0
2018-03-15T04:35:01.340Z,0
2018-03-15T04:36:16.074Z,0
2018-03-15T04:37:01.371Z,0
2018-03-15T04:38:01.393Z,0
2018-03-15T04:39:16.064Z,0
2018-03-15T04:40:01.416Z,0
2018-03-15T04:41:01.430Z,0
2018-03-15T04:42:01.199Z,0
2018-03-15T04:43:01.206Z,0
2018-03-15T04:45:01.233Z,0
2018-03-15T04:46:01.503Z,0
2018-03-15T04:49:01.566Z,0
2018-03-15T04:50:15.987Z,0
2018-03-15T04:51:01.595Z,0
2018-03-15T04:52:16.007Z,0
2018-03-15T04:53:01.626Z,0
2018-03-15T04:54:01.624Z,0
2018-03-15T04:55:01.646Z,4
2018-03-15T04:56:01.658Z,0
2018-03-15T04:57:01.672Z,0
2018-03-15T04:58:01.688Z,4
2018-03-15T05:00:01.766Z,4
2018-03-15T05:01:01.478Z,4
2018-03-15T05:02:01.853Z,4
2018-03-15T05:03:01.760Z,4
2018-03-15T05:06:16.475Z,8
2018-03-15T05:07:16.488Z,12
2018-03-15T05:08:16.554Z,12
2018-03-15T05:09:01.601Z,12
2018-03-15T05:11:01.689Z,16
2018-03-15T05:12:01.905Z,16
2018-03-15T05:13:01.909Z,20
2018-03-15T05:14:01.937Z,20
2018-03-15T05:15:01.956Z,24
2018-03-15T05:18:01.996Z,28
2018-03-15T05:19:01.998Z,36
2018-03-15T05:20:02.038Z,36
2018-03-15T05:21:16.701Z,44
2018-03-15T05:22:16.716Z,44
2018-03-15T05:23:01.819Z,48
2018-03-15T05:24:02.080Z,56
2018-03-15T05:25:16.806Z,64
2018-03-15T05:26:02.102Z,68
2018-03-15T05:27:02.118Z,80
2018-03-15T05:28:01.882Z,72
2018-03-15T05:29:01.893Z,64
2018-03-15T05:30:02.165Z,72
2018-03-15T05:31:02.178Z,84
2018-03-15T05:32:02.209Z,88
2018-03-15T05:34:02.227Z,96
2018-03-15T05:35:01.990Z,100
2018-03-15T05:36:02.253Z,124
2018-03-15T05:37:17.103Z,136
2018-03-15T05:38:16.955Z,156
2018-03-15T05:39:02.046Z,168
2018-03-15T05:40:02.326Z,172
2018-03-15T05:41:02.335Z,164
2018-03-15T05:42:02.355Z,184
2018-03-15T05:43:02.363Z,168
2018-03-15T05:44:02.377Z,156
2018-03-15T05:45:02.135Z,168
2018-03-15T05:46:02.412Z,160
2018-03-15T05:47:02.261Z,160
2018-03-15T05:48:02.178Z,156
2018-03-15T05:49:02.456Z,160
2018-03-15T05:51:02.232Z,176
2018-03-15T05:52:02.238Z,180
2018-03-15T05:53:02.251Z,192
2018-03-15T05:54:17.244Z,204
2018-03-15T05:55:02.552Z,216
2018-03-15T05:56:02.571Z,232
2018-03-15T05:57:02.573Z,256
2018-03-15T05:58:02.642Z,268
2018-03-15T05:59:02.343Z,252
2018-03-15T06:00:02.358Z,256
2018-03-15T06:01:02.373Z,252
2018-03-15T06:02:02.132Z,256
2018-03-15T06:03:02.406Z,292
2018-03-15T06:04:02.676Z,304
2018-03-15T06:05:02.225Z,300
2018-03-15T06:07:02.465Z,344
2018-03-15T06:08:02.222Z,356
2018-03-15T06:09:17.416Z,364
2018-03-15T06:10:02.767Z,400
2018-03-15T06:11:17.445Z,368
2018-03-15T06:12:02.799Z,388
2018-03-15T06:13:02.295Z,436
2018-03-15T06:14:03.037Z,432
2018-03-15T06:15:02.702Z,440
2018-03-15T06:16:02.849Z,468
2018-03-15T06:17:02.866Z,528
2018-03-15T06:18:02.884Z,592
2018-03-15T06:19:02.897Z,604
2018-03-15T06:20:02.912Z,564
2018-03-15T06:21:02.952Z,548
2018-03-15T06:22:02.942Z,540
2018-03-15T06:24:02.975Z,644
2018-03-15T06:25:17.758Z,592
2018-03-15T06:26:02.999Z,588
2018-03-15T06:27:03.017Z,644
2018-03-15T06:28:03.033Z,652
2018-03-15T06:29:02.794Z,620
2018-03-15T06:30:02.295Z,632
2018-03-15T06:31:02.821Z,576
2018-03-15T06:32:03.088Z,584
2018-03-15T06:33:02.852Z,612
2018-03-15T06:34:03.229Z,616
2018-03-15T06:35:03.141Z,584
2018-03-15T06:36:03.257Z,600
2018-03-15T06:37:17.932Z,636
2018-03-15T06:38:03.176Z,584
2018-03-15T06:39:03.196Z,628
2018-03-15T06:40:17.621Z,676
2018-03-15T06:42:03.358Z,660
2018-03-15T06:43:17.920Z,688
2018-03-15T06:44:03.289Z,700
2018-03-15T06:45:03.292Z,740
2018-03-15T06:46:17.964Z,736
2018-03-15T06:47:03.311Z,768
2018-03-15T06:48:03.327Z,800
2018-03-15T06:49:03.348Z,804
2018-03-15T06:50:03.103Z,880
2018-03-15T06:51:03.120Z,944
2018-03-15T06:52:03.139Z,900
2018-03-15T06:53:03.507Z,964
2018-03-15T06:54:03.425Z,988
2018-03-15T06:55:03.448Z,968
2018-03-15T06:56:03.448Z,1020
2018-03-15T06:57:18.128Z,1024
2018-03-15T06:58:03.529Z,1064
2018-03-15T06:59:03.497Z,1088
2018-03-15T07:00:03.260Z,1168
2018-03-15T07:01:03.540Z,1204
2018-03-15T07:02:18.206Z,1192
2018-03-15T07:03:03.552Z,1148
2018-03-15T07:04:03.571Z,1228
2018-03-15T07:05:03.583Z,1260
2018-03-15T07:06:03.597Z,1264
2018-03-15T07:07:03.356Z,1256
2018-03-15T07:08:03.631Z,1344
2018-03-15T07:09:03.645Z,1368
2018-03-15T07:10:03.150Z,1376
2018-03-15T07:11:18.137Z,1368
2018-03-15T07:12:18.355Z,1252
2018-03-15T07:13:03.718Z,1280
2018-03-15T07:14:18.129Z,1320
2018-03-15T07:15:03.779Z,1288
2018-03-15T07:16:03.749Z,1300
2018-03-15T07:17:03.765Z,1308
2018-03-15T07:18:03.783Z,1384
2018-03-15T07:19:03.539Z,1420
2018-03-15T07:20:03.560Z,1436
2018-03-15T07:21:03.832Z,1448
2018-03-15T07:22:03.841Z,1480
2018-03-15T07:23:03.598Z,1500
2018-03-15T07:24:03.669Z,1516
2018-03-15T07:26:03.691Z,1532
2018-03-15T07:27:04.016Z,1560
2018-03-15T07:28:03.418Z,1660
2018-03-15T07:30:03.446Z,1740
2018-03-15T07:31:04.026Z,1664
2018-03-15T07:32:04.018Z,1788
2018-03-15T07:33:03.749Z,1888
2018-03-15T07:34:03.760Z,2008
2018-03-15T07:35:04.031Z,1964
2018-03-15T07:36:03.791Z,1960
2018-03-15T07:37:04.061Z,1976
2018-03-15T07:38:03.871Z,2028
2018-03-15T07:39:04.094Z,2164
2018-03-15T07:40:03.854Z,2196
2018-03-15T07:41:03.869Z,2236
2018-03-15T07:42:04.184Z,2288
2018-03-15T07:43:03.639Z,2308
2018-03-15T07:44:18.833Z,2420
2018-03-15T07:45:04.184Z,2428
2018-03-15T07:46:18.869Z,2312
2018-03-15T07:47:03.960Z,2244
2018-03-15T07:48:03.975Z,2180
2018-03-15T07:49:18.906Z,2036
2018-03-15T07:50:04.261Z,1988
2018-03-15T07:51:04.016Z,1936
2018-03-15T07:52:04.289Z,1960
2018-03-15T07:53:04.045Z,2216
2018-03-15T07:54:04.158Z,2124
2018-03-15T07:55:04.335Z,2084
2018-03-15T07:56:03.919Z,2092
2018-03-15T07:57:03.854Z,2068
2018-03-15T07:58:04.126Z,2028
2018-03-15T07:59:04.140Z,1868
2018-03-15T08:00:19.075Z,1920
2018-03-15T08:01:19.089Z,1960
2018-03-15T08:02:03.950Z,1948
2018-03-15T08:03:03.939Z,1992
2018-03-15T08:04:04.213Z,1928
2018-03-15T08:05:04.480Z,1884
2018-03-15T08:06:04.254Z,1896
2018-03-15T08:07:04.579Z,1952
2018-03-15T08:08:04.322Z,1880
2018-03-15T08:09:04.538Z,1856
2018-03-15T08:10:04.300Z,1796
2018-03-15T08:12:04.590Z,1920
2018-03-15T08:13:04.630Z,2084
2018-03-15T08:15:04.637Z,2192
2018-03-15T08:16:19.062Z,2348
2018-03-15T08:18:04.682Z,2540
2018-03-15T08:19:19.408Z,2544
2018-03-15T08:20:19.372Z,2632
2018-03-15T08:21:04.472Z,2668
2018-03-15T08:22:04.490Z,2704
2018-03-15T08:23:04.242Z,2780
2018-03-15T08:24:04.771Z,2764
2018-03-15T08:25:04.534Z,2816
2018-03-15T08:26:04.807Z,2920
2018-03-15T08:27:04.865Z,3088
2018-03-15T08:28:04.880Z,3312
2018-03-15T08:29:04.840Z,3428
2018-03-15T08:30:04.991Z,3512
2018-03-15T08:31:04.361Z,3560
2018-03-15T08:32:19.297Z,3480
2018-03-15T08:33:04.909Z,3340
2018-03-15T08:34:19.583Z,3356
2018-03-15T08:35:04.937Z,3284
2018-03-15T08:36:04.692Z,3472
2018-03-15T08:37:04.705Z,3636
2018-03-15T08:38:04.722Z,3988
2018-03-15T08:39:04.493Z,3992
2018-03-15T08:40:04.497Z,4196
2018-03-15T08:41:04.819Z,4208
2018-03-15T08:42:05.048Z,4252
2018-03-15T08:43:05.059Z,4424
2018-03-15T08:44:04.357Z,4524
2018-03-15T08:45:04.842Z,4312
2018-03-15T08:46:04.855Z,4308
2018-03-15T08:47:19.837Z,3940
2018-03-15T08:49:04.895Z,4216
2018-03-15T08:50:04.908Z,4656
2018-03-15T08:51:05.184Z,4820
2018-03-15T08:52:05.207Z,4636
2018-03-15T08:53:04.958Z,4600
2018-03-15T08:54:05.261Z,4584
2018-03-15T08:56:05.268Z,4544
2018-03-15T08:57:05.413Z,4532
2018-03-15T08:58:05.286Z,4476
2018-03-15T08:59:05.305Z,4240
2018-03-15T09:00:05.072Z,4404
2018-03-15T09:01:05.336Z,4580
2018-03-15T09:02:05.351Z,4440
2018-03-15T09:03:05.367Z,4544
2018-03-15T09:04:05.176Z,4704
2018-03-15T09:06:05.459Z,4776
2018-03-15T09:07:05.435Z,4516
2018-03-15T09:08:05.447Z,4644
2018-03-15T09:09:20.139Z,4632
2018-03-15T09:10:05.221Z,4904
2018-03-15T09:11:05.391Z,5044
2018-03-15T09:12:05.249Z,4652
2018-03-15T09:13:05.529Z,4656
2018-03-15T09:15:05.298Z,4492
2018-03-15T09:17:05.469Z,3924
2018-03-15T09:18:05.608Z,4040
2018-03-15T09:19:20.290Z,4528
2018-03-15T09:20:05.632Z,4476
2018-03-15T09:21:20.316Z,4336
2018-03-15T09:22:05.696Z,4232
2018-03-15T09:23:05.753Z,4420
2018-03-15T09:24:05.440Z,4244
2018-03-15T09:26:05.780Z,4312
2018-03-15T09:27:20.416Z,4320
2018-03-15T09:28:05.508Z,4348
2018-03-15T09:29:05.892Z,4332
2018-03-15T09:30:05.581Z,4304
2018-03-15T09:31:05.879Z,4564
2018-03-15T09:32:05.876Z,4448
2018-03-15T09:33:05.600Z,4648
2018-03-15T09:34:05.360Z,5124
2018-03-15T09:35:20.628Z,5228
2018-03-15T09:36:06.665Z,5056
2018-03-15T09:37:20.598Z,5200
2018-03-15T09:38:05.699Z,4848
2018-03-15T09:39:20.679Z,4920
2018-03-15T09:40:05.717Z,5284
2018-03-15T09:41:05.784Z,5060
2018-03-15T09:42:05.930Z,5088
2018-03-15T09:43:06.380Z,5576
2018-03-15T09:44:05.795Z,5564
2018-03-15T09:45:05.813Z,5456
2018-03-15T09:46:06.173Z,5532
2018-03-15T09:47:05.838Z,6396
2018-03-15T09:48:06.151Z,6776
2018-03-15T09:49:05.934Z,7192
2018-03-15T09:50:05.611Z,6944
2018-03-15T09:51:20.911Z,6772
2018-03-15T09:52:06.218Z,7036
2018-03-15T09:53:06.242Z,7900
2018-03-15T09:55:06.353Z,6268
2018-03-15T09:56:06.317Z,6696
2018-03-15T09:57:06.250Z,7072
2018-03-15T09:58:07.213Z,6060
2018-03-15T09:59:07.153Z,6016
2018-03-15T10:00:06.052Z,6124
2018-03-15T10:01:06.075Z,5976
2018-03-15T10:02:21.047Z,5832
2018-03-15T10:03:06.106Z,6428
2018-03-15T10:04:21.040Z,6088
2018-03-15T10:05:06.388Z,6196
2018-03-15T10:06:07.812Z,6900
2018-03-15T10:07:20.813Z,7792
2018-03-15T10:08:05.905Z,8236
2018-03-15T10:09:06.603Z,7404
2018-03-15T10:10:06.202Z,6408
2018-03-15T10:11:06.509Z,6072
2018-03-15T10:12:06.325Z,5728
2018-03-15T10:13:08.068Z,5804
2018-03-15T10:14:06.597Z,5288
2018-03-15T10:15:06.595Z,5608
2018-03-15T10:16:06.576Z,5604
2018-03-15T10:17:06.333Z,5800
2018-03-15T10:18:06.353Z,5876
2018-03-15T10:19:06.622Z,6164
2018-03-15T10:20:07.288Z,6204
2018-03-15T10:22:21.973Z,6516
2018-03-15T10:23:21.362Z,6612
2018-03-15T10:24:06.733Z,6876
2018-03-15T10:25:45.384Z,7708
2018-03-15T10:26:06.745Z,7272
2018-03-15T10:27:06.484Z,7000
2018-03-15T10:28:08.700Z,6856
2018-03-15T10:29:06.243Z,6892
2018-03-15T10:30:06.579Z,7504
2018-03-15T10:31:06.728Z,8036
2018-03-15T10:32:07.254Z,7628
2018-03-15T10:33:06.624Z,7056
2018-03-15T10:34:21.561Z,7572
2018-03-15T10:35:07.508Z,7768
2018-03-15T10:36:07.585Z,7920
2018-03-15T10:37:06.645Z,8448
2018-03-15T10:38:06.938Z,7964
2018-03-15T10:40:06.698Z,7160
2018-03-15T10:41:06.706Z,7280
2018-03-15T10:42:07.061Z,8396
2018-03-15T10:43:08.342Z,7320
2018-03-15T10:44:06.769Z,6696
2018-03-15T10:45:07.094Z,7004
2018-03-15T10:46:06.815Z,7056
2018-03-15T10:47:07.151Z,7156
2018-03-15T10:49:21.850Z,6980
2018-03-15T10:50:07.542Z,7088
2018-03-15T10:51:09.037Z,7380
2018-03-15T10:52:07.196Z,8120
2018-03-15T10:53:06.930Z,8888
2018-03-15T10:54:21.859Z,9716
2018-03-15T10:55:07.277Z,9880
2018-03-15T10:56:06.984Z,9424
2018-03-15T10:57:07.030Z,8892
2018-03-15T10:58:08.063Z,9848
2018-03-15T10:59:08.091Z,9556
2018-03-15T11:00:07.639Z,8724
2018-03-15T11:02:07.200Z,8972
2018-03-15T11:03:07.095Z,9032
2018-03-15T11:04:07.122Z,9084
2018-03-15T11:05:07.146Z,8780
2018-03-15T11:07:07.707Z,8164
2018-03-15T11:08:07.237Z,8400
2018-03-15T11:09:07.196Z,8080
2018-03-15T11:10:22.153Z,7756
2018-03-15T11:11:07.256Z,8016
2018-03-15T11:12:07.001Z,8600
2018-03-15T11:13:07.276Z,8260
2018-03-15T11:14:07.218Z,8176
2018-03-15T11:15:07.624Z,8364
2018-03-15T11:16:07.667Z,7932
2018-03-15T11:17:07.068Z,8064
2018-03-15T11:18:07.868Z,7752
2018-03-15T11:19:07.368Z,7864
2018-03-15T11:20:07.655Z,8360
2018-03-15T11:21:07.137Z,7348
2018-03-15T11:22:09.656Z,6880
2018-03-15T11:23:07.791Z,6848
2018-03-15T11:24:22.724Z,7188
2018-03-15T11:25:07.479Z,6612
2018-03-15T11:26:22.443Z,6312
2018-03-15T11:27:07.811Z,6544
2018-03-15T11:28:07.801Z,7148
2018-03-15T11:29:07.278Z,7440
2018-03-15T11:30:08.694Z,7856
2018-03-15T11:31:22.504Z,8184
2018-03-15T11:32:07.887Z,8348
2018-03-15T11:33:07.341Z,8400
2018-03-15T11:34:07.934Z,8484
2018-03-15T11:35:07.388Z,8472
2018-03-15T11:36:07.454Z,8576
2018-03-15T11:37:23.035Z,8876
2018-03-15T11:39:08.001Z,9412
2018-03-15T11:40:07.747Z,9808
2018-03-15T11:41:08.081Z,9216
2018-03-15T11:43:22.783Z,8224
2018-03-15T11:44:22.477Z,8392
2018-03-15T11:45:08.430Z,8208
2018-03-15T11:46:07.846Z,7996
2018-03-15T11:47:08.234Z,8556
2018-03-15T11:48:07.923Z,8752
2018-03-15T11:49:07.923Z,8952
2018-03-15T11:50:07.960Z,8784
2018-03-15T11:51:07.937Z,8328
2018-03-15T11:52:07.677Z,8256
2018-03-15T11:53:09.593Z,8544
2018-03-15T11:54:07.982Z,9132
2018-03-15T11:56:08.315Z,9072
2018-03-15T11:57:22.954Z,8896
2018-03-15T11:58:08.332Z,8664
2018-03-15T11:59:08.356Z,8488
2018-03-15T12:00:07.827Z,8688
2018-03-15T12:01:08.721Z,9280
2018-03-15T12:02:08.123Z,9804
2018-03-15T12:03:07.888Z,9792
2018-03-15T12:04:08.447Z,9436
2018-03-15T12:06:07.660Z,9204
2018-03-15T12:07:08.516Z,9512
2018-03-15T12:09:08.343Z,9492
2018-03-15T12:10:08.295Z,9840
2018-03-15T12:11:08.297Z,9828
2018-03-15T12:12:08.330Z,9468
2018-03-15T12:13:08.319Z,9332
2018-03-15T12:14:08.631Z,9684
2018-03-15T12:16:08.092Z,9348
2018-03-15T12:17:23.063Z,8812
2018-03-15T12:18:08.384Z,8496
2018-03-15T12:19:08.194Z,8504
2018-03-15T12:20:08.676Z,9172
2018-03-15T12:21:08.796Z,9976
2018-03-15T12:23:08.749Z,10096
2018-03-15T12:24:08.750Z,10064
2018-03-15T12:25:08.512Z,9884
2018-03-15T12:26:08.530Z,9900
2018-03-15T12:27:23.571Z,9828
2018-03-15T12:28:08.570Z,9684
2018-03-15T12:29:23.249Z,9264
2018-03-15T12:30:08.856Z,9248
2018-03-15T12:31:08.628Z,8892
2018-03-15T12:33:08.400Z,8968
2018-03-15T12:34:08.680Z,9260
2018-03-15T12:35:08.704Z,9124
2018-03-15T12:36:08.460Z,8632
2018-03-15T12:37:08.730Z,8776
2018-03-15T12:38:08.753Z,8908
2018-03-15T12:39:09.026Z,8632
2018-03-15T12:40:09.107Z,8504
2018-03-15T12:41:08.815Z,8160
2018-03-15T12:42:09.080Z,8212
2018-03-15T12:43:09.095Z,8096
2018-03-15T12:44:23.529Z,7924
2018-03-15T12:46:09.215Z,6988
2018-03-15T12:47:09.188Z,6952
2018-03-15T12:49:08.956Z,7084
2018-03-15T12:50:08.970Z,6656
2018-03-15T12:51:08.732Z,6444
2018-03-15T12:52:09.329Z,6376
2018-03-15T12:53:09.026Z,6340
2018-03-15T12:54:09.297Z,6100
2018-03-15T12:55:09.316Z,5404
2018-03-15T12:56:09.186Z,5032
2018-03-15T12:57:09.364Z,4616
2018-03-15T12:58:09.421Z,4596
2018-03-15T12:59:09.385Z,4480
2018-03-15T13:00:24.086Z,4092
2018-03-15T13:01:24.099Z,4004
2018-03-15T13:02:24.111Z,3992
2018-03-15T13:03:24.128Z,4200
2018-03-15T13:04:08.711Z,4476
2018-03-15T13:05:09.238Z,4080
2018-03-15T13:06:09.356Z,3640
2018-03-15T13:07:09.535Z,3680
2018-03-15T13:08:09.296Z,3660
2018-03-15T13:09:09.567Z,3376
2018-03-15T13:10:09.330Z,3456
2018-03-15T13:11:09.348Z,3488
2018-03-15T13:13:09.431Z,3744
2018-03-15T13:14:09.673Z,3936
2018-03-15T13:15:24.344Z,4160
2018-03-15T13:16:09.434Z,4124
2018-03-15T13:17:24.423Z,3912
2018-03-15T13:18:09.477Z,3876
2018-03-15T13:19:09.788Z,3880
2018-03-15T13:20:09.764Z,3964
2018-03-15T13:21:24.507Z,4564
2018-03-15T13:22:09.836Z,4644
2018-03-15T13:23:09.878Z,4844
2018-03-15T13:24:09.841Z,4868
2018-03-15T13:25:09.948Z,5084
2018-03-15T13:26:09.615Z,5632
2018-03-15T13:27:09.878Z,5512
2018-03-15T13:28:09.908Z,5464
2018-03-15T13:29:24.591Z,5600
2018-03-15T13:30:09.685Z,5836
2018-03-15T13:31:24.367Z,5696
2018-03-15T13:32:24.685Z,5576
2018-03-15T13:33:09.989Z,5528
2018-03-15T13:34:09.801Z,5116
2018-03-15T13:35:09.768Z,4840
2018-03-15T13:36:09.529Z,4704
2018-03-15T13:37:10.145Z,4188
2018-03-15T13:38:10.221Z,3932
2018-03-15T13:39:10.099Z,4120
2018-03-15T13:40:09.646Z,4348
2018-03-15T13:41:10.125Z,4200
2018-03-15T13:42:10.144Z,4236
2018-03-15T13:43:10.222Z,4140
2018-03-15T13:45:10.339Z,4052
2018-03-15T13:46:10.214Z,4264
2018-03-15T13:47:10.241Z,4536
2018-03-15T13:48:09.849Z,4584
2018-03-15T13:49:24.678Z,4588
2018-03-15T13:50:10.289Z,4708
2018-03-15T13:51:10.043Z,4512
2018-03-15T13:52:10.387Z,4356
2018-03-15T13:53:10.082Z,4152
2018-03-15T13:54:10.353Z,4148
2018-03-15T13:55:10.157Z,4224
2018-03-15T13:56:09.923Z,4120
2018-03-15T13:57:09.996Z,4076
2018-03-15T13:58:10.170Z,4024
2018-03-15T13:59:10.443Z,3708
2018-03-15T14:00:10.453Z,3436
2018-03-15T14:01:10.221Z,3476
2018-03-15T14:02:10.495Z,3616
2018-03-15T14:03:10.506Z,3696
2018-03-15T14:04:25.196Z,4272
2018-03-15T14:05:10.299Z,4764
2018-03-15T14:06:10.561Z,5092
2018-03-15T14:07:25.243Z,5252
2018-03-15T14:08:10.596Z,5448
2018-03-15T14:09:10.619Z,5668
2018-03-15T14:10:10.371Z,5712
2018-03-15T14:11:10.396Z,5988
2018-03-15T14:12:10.406Z,5880
2018-03-15T14:13:10.680Z,5820
2018-03-15T14:14:25.371Z,5780
2018-03-15T14:15:10.720Z,5928
2018-03-15T14:16:10.014Z,6276
2018-03-15T14:18:10.510Z,5884
2018-03-15T14:19:25.453Z,5716
2018-03-15T14:20:25.468Z,5524
2018-03-15T14:21:10.825Z,5548
2018-03-15T14:22:10.323Z,5404
2018-03-15T14:23:10.857Z,5176
2018-03-15T14:24:10.875Z,4980
2018-03-15T14:25:10.892Z,4956
2018-03-15T14:26:10.906Z,4960
2018-03-15T14:27:10.930Z,5032
2018-03-15T14:28:10.941Z,5096
2018-03-15T14:29:10.700Z,5156
2018-03-15T14:30:10.984Z,5128
2018-03-15T14:32:25.426Z,4932
2018-03-15T14:33:11.030Z,4912
2018-03-15T14:34:11.042Z,4788
2018-03-15T14:35:25.475Z,4744
2018-03-15T14:37:25.507Z,4588
2018-03-15T14:38:25.780Z,4516
2018-03-15T14:39:25.812Z,4508
2018-03-15T14:40:11.145Z,4448
2018-03-15T14:41:25.879Z,4204
2018-03-15T14:42:10.668Z,4116
2018-03-15T14:44:10.962Z,3900
2018-03-15T14:45:11.246Z,3752
2018-03-15T14:46:11.251Z,3768
2018-03-15T14:47:11.270Z,3648
2018-03-15T14:48:11.291Z,3508
2018-03-15T14:49:11.312Z,3368
2018-03-15T14:50:11.323Z,3128
2018-03-15T14:51:11.338Z,2976
2018-03-15T14:52:26.070Z,3028
2018-03-15T14:53:11.118Z,3088
2018-03-15T14:54:26.056Z,2944